sensor_id;sensor_type;location;lat;lon;timestamp;pressure;altitude;pressure_sealevel;temperature;humidity
35291;BME280;21411;50.024;19.220;2022-10-19T00:01:30;99690.27;;;12.35;100.00
35291;BME280;21411;50.024;19.220;2022-10-19T00:03:56;99697.05;;;12.35;100.00
35291;BME280;21411;50.024;19.220;2022-10-19T00:06:29;99697.42;;;12.34;100.00
35291;BME280;21411;50.024;19.220;2022-10-19T00:11:28;99697.05;;;12.37;100.00
35291;BME280;21411;50.024;19.220;2022-10-19T00:13:56;99699.06;;;12.40;100.00
35291;BME280;21411;50.024;19.220;2022-10-19T00:16:24;99698.73;;;12.42;100.00
35291;BME280;21411;50.024;19.220;2022-10-19T00:18:55;99696.27;;;12.44;100.00
35291;BME280;21411;50.024;19.220;2022-10-19T00:21:22;99695.59;;;12.46;100.00
35291;BME280;21411;50.024;19.220;2022-10-19T00:23:48;99694.83;;;12.47;100.00
35291;BME280;21411;50.024;19.220;2022-10-19T00:26:15;99695.14;;;12.48;100.00
35291;BME280;21411;50.024;19.220;2022-10-19T00:28:42;99698.88;;;12.48;100.00
35291;BME280;21411;50.024;19.220;2022-10-19T00:31:12;99694.98;;;12.48;100.00
35291;BME280;21411;50.024;19.220;2022-10-19T00:33:40;99690.52;;;12.47;100.00
35291;BME280;21411;50.024;19.220;2022-10-19T00:36:20;99689.77;;;12.48;100.00
35291;BME280;21411;50.024;19.220;2022-10-19T00:38:48;99690.40;;;12.50;100.00
35291;BME280;21411;50.024;19.220;2022-10-19T00:41:16;99690.77;;;12.49;100.00
35291;BME280;21411;50.024;19.220;2022-10-19T00:46:40;99691.44;;;12.50;100.00
35291;BME280;21411;50.024;19.220;2022-10-19T00:51:40;99682.52;;;12.53;100.00
35291;BME280;21411;50.024;19.220;2022-10-19T00:54:08;99684.05;;;12.54;100.00
35291;BME280;21411;50.024;19.220;2022-10-19T00:56:37;99677.75;;;12.55;100.00
35291;BME280;21411;50.024;19.220;2022-10-19T00:59:05;99676.09;;;12.56;100.00
35291;BME280;21411;50.024;19.220;2022-10-19T01:01:33;99675.53;;;12.57;100.00
35291;BME280;21411;50.024;19.220;2022-10-19T01:04:02;99677.23;;;12.58;100.00
35291;BME280;21411;50.024;19.220;2022-10-19T01:06:29;99676.68;;;12.58;100.00
35291;BME280;21411;50.024;19.220;2022-10-19T01:08:56;99670.27;;;12.58;100.00
35291;BME280;21411;50.024;19.220;2022-10-19T01:16:59;99666.50;;;12.59;100.00
35291;BME280;21411;50.024;19.220;2022-10-19T01:25:22;99659.56;;;12.58;100.00
35291;BME280;21411;50.024;19.220;2022-10-19T01:30:48;99653.71;;;12.58;100.00
35291;BME280;21411;50.024;19.220;2022-10-19T01:36:08;99651.19;;;12.58;100.00
35291;BME280;21411;50.024;19.220;2022-10-19T01:39:02;99647.17;;;12.57;100.00
35291;BME280;21411;50.024;19.220;2022-10-19T01:41:48;99646.02;;;12.55;100.00
35291;BME280;21411;50.024;19.220;2022-10-19T01:44:54;99645.90;;;12.55;100.00
35291;BME280;21411;50.024;19.220;2022-10-19T01:47:37;99642.42;;;12.53;100.00
35291;BME280;21411;50.024;19.220;2022-10-19T01:50:12;99639.61;;;12.52;100.00
35291;BME280;21411;50.024;19.220;2022-10-19T01:52:41;99638.95;;;12.52;100.00
35291;BME280;21411;50.024;19.220;2022-10-19T01:55:11;99640.98;;;12.50;100.00
35291;BME280;21411;50.024;19.220;2022-10-19T01:57:46;99636.63;;;12.49;100.00
35291;BME280;21411;50.024;19.220;2022-10-19T02:00:38;99634.20;;;12.48;100.00
35291;BME280;21411;50.024;19.220;2022-10-19T02:03:07;99636.23;;;12.47;100.00
35291;BME280;21411;50.024;19.220;2022-10-19T02:05:36;99641.60;;;12.46;100.00
35291;BME280;21411;50.024;19.220;2022-10-19T02:08:12;99641.77;;;12.46;100.00
35291;BME280;21411;50.024;19.220;2022-10-19T02:10:41;99641.23;;;12.46;100.00
35291;BME280;21411;50.024;19.220;2022-10-19T02:13:11;99638.16;;;12.44;100.00
35291;BME280;21411;50.024;19.220;2022-10-19T02:15:40;99642.86;;;12.43;100.00
35291;BME280;21411;50.024;19.220;2022-10-19T02:18:09;99638.85;;;12.42;100.00
35291;BME280;21411;50.024;19.220;2022-10-19T02:20:38;99637.38;;;12.43;100.00
35291;BME280;21411;50.024;19.220;2022-10-19T02:23:05;99637.57;;;12.42;100.00
35291;BME280;21411;50.024;19.220;2022-10-19T02:25:33;99636.36;;;12.42;100.00
35291;BME280;21411;50.024;19.220;2022-10-19T02:28:03;99634.40;;;12.42;100.00
35291;BME280;21411;50.024;19.220;2022-10-19T02:30:30;99635.45;;;12.42;100.00
35291;BME280;21411;50.024;19.220;2022-10-19T02:32:57;99633.58;;;12.41;100.00
35291;BME280;21411;50.024;19.220;2022-10-19T02:35:24;99632.20;;;12.40;100.00
35291;BME280;21411;50.024;19.220;2022-10-19T02:37:50;99628.11;;;12.40;100.00
35291;BME280;21411;50.024;19.220;2022-10-19T02:40:17;99623.73;;;12.39;100.00
35291;BME280;21411;50.024;19.220;2022-10-19T02:42:51;99621.33;;;12.37;100.00
35291;BME280;21411;50.024;19.220;2022-10-19T02:45:21;99622.05;;;12.37;100.00
35291;BME280;21411;50.024;19.220;2022-10-19T02:47:53;99619.55;;;12.38;100.00
35291;BME280;21411;50.024;19.220;2022-10-19T02:50:20;99617.62;;;12.37;100.00
35291;BME280;21411;50.024;19.220;2022-10-19T02:52:47;99617.45;;;12.37;100.00
35291;BME280;21411;50.024;19.220;2022-10-19T02:55:14;99620.75;;;12.36;100.00
35291;BME280;21411;50.024;19.220;2022-10-19T02:57:40;99618.29;;;12.35;100.00
35291;BME280;21411;50.024;19.220;2022-10-19T03:00:07;99622.16;;;12.36;100.00
35291;BME280;21411;50.024;19.220;2022-10-19T03:02:34;99627.72;;;12.35;100.00
35291;BME280;21411;50.024;19.220;2022-10-19T03:05:00;99628.11;;;12.34;100.00
35291;BME280;21411;50.024;19.220;2022-10-19T03:07:27;99624.77;;;12.34;100.00
35291;BME280;21411;50.024;19.220;2022-10-19T03:09:54;99618.29;;;12.35;100.00
35291;BME280;21411;50.024;19.220;2022-10-19T03:12:20;99617.16;;;12.36;100.00
35291;BME280;21411;50.024;19.220;2022-10-19T03:14:47;99620.22;;;12.35;100.00
35291;BME280;21411;50.024;19.220;2022-10-19T03:17:13;99620.08;;;12.35;100.00
35291;BME280;21411;50.024;19.220;2022-10-19T03:19:39;99623.80;;;12.35;100.00
35291;BME280;21411;50.024;19.220;2022-10-19T03:22:06;99625.59;;;12.35;100.00
35291;BME280;21411;50.024;19.220;2022-10-19T03:24:33;99628.14;;;12.34;100.00
35291;BME280;21411;50.024;19.220;2022-10-19T03:26:59;99626.24;;;12.33;100.00
35291;BME280;21411;50.024;19.220;2022-10-19T03:29:26;99623.79;;;12.33;100.00
35291;BME280;21411;50.024;19.220;2022-10-19T03:31:52;99623.70;;;12.31;100.00
35291;BME280;21411;50.024;19.220;2022-10-19T03:34:19;99623.59;;;12.27;100.00
35291;BME280;21411;50.024;19.220;2022-10-19T03:36:45;99620.33;;;12.22;100.00
35291;BME280;21411;50.024;19.220;2022-10-19T03:39:14;99616.98;;;12.16;100.00
35291;BME280;21411;50.024;19.220;2022-10-19T03:41:42;99615.84;;;12.09;100.00
35291;BME280;21411;50.024;19.220;2022-10-19T03:44:10;99614.67;;;12.02;100.00
35291;BME280;21411;50.024;19.220;2022-10-19T03:46:37;99616.05;;;11.97;100.00
35291;BME280;21411;50.024;19.220;2022-10-19T03:49:04;99615.10;;;11.95;100.00
35291;BME280;21411;50.024;19.220;2022-10-19T03:51:31;99614.02;;;11.92;100.00
35291;BME280;21411;50.024;19.220;2022-10-19T03:54:07;99615.39;;;11.91;100.00
35291;BME280;21411;50.024;19.220;2022-10-19T03:56:35;99615.25;;;11.90;100.00
35291;BME280;21411;50.024;19.220;2022-10-19T03:59:03;99612.04;;;11.90;100.00
35291;BME280;21411;50.024;19.220;2022-10-19T04:01:41;99613.79;;;11.91;100.00
35291;BME280;21411;50.024;19.220;2022-10-19T04:04:12;99610.73;;;11.91;100.00
35291;BME280;21411;50.024;19.220;2022-10-19T04:06:41;99612.02;;;11.91;100.00
35291;BME280;21411;50.024;19.220;2022-10-19T04:09:10;99615.80;;;11.90;100.00
35291;BME280;21411;50.024;19.220;2022-10-19T04:11:38;99612.88;;;11.88;100.00
35291;BME280;21411;50.024;19.220;2022-10-19T04:14:04;99609.79;;;11.86;100.00
35291;BME280;21411;50.024;19.220;2022-10-19T04:16:31;99611.44;;;11.85;100.00
35291;BME280;21411;50.024;19.220;2022-10-19T04:18:59;99612.75;;;11.83;100.00
35291;BME280;21411;50.024;19.220;2022-10-19T04:21:29;99614.85;;;11.81;100.00
35291;BME280;21411;50.024;19.220;2022-10-19T04:24:08;99617.10;;;11.77;100.00
35291;BME280;21411;50.024;19.220;2022-10-19T04:26:41;99616.73;;;11.71;100.00
35291;BME280;21411;50.024;19.220;2022-10-19T04:29:09;99617.25;;;11.66;100.00
35291;BME280;21411;50.024;19.220;2022-10-19T04:31:36;99619.23;;;11.62;100.00
35291;BME280;21411;50.024;19.220;2022-10-19T04:34:03;99617.99;;;11.59;100.00
35291;BME280;21411;50.024;19.220;2022-10-19T04:36:31;99614.17;;;11.55;100.00
35291;BME280;21411;50.024;19.220;2022-10-19T04:38:57;99614.42;;;11.51;100.00
35291;BME280;21411;50.024;19.220;2022-10-19T04:41:24;99611.40;;;11.45;100.00
35291;BME280;21411;50.024;19.220;2022-10-19T04:44:00;99607.45;;;11.39;100.00
35291;BME280;21411;50.024;19.220;2022-10-19T04:46:28;99608.36;;;11.36;100.00
35291;BME280;21411;50.024;19.220;2022-10-19T04:48:56;99606.64;;;11.36;100.00
35291;BME280;21411;50.024;19.220;2022-10-19T04:51:23;99606.26;;;11.35;100.00
35291;BME280;21411;50.024;19.220;2022-10-19T04:53:50;99603.50;;;11.34;100.00
35291;BME280;21411;50.024;19.220;2022-10-19T04:56:19;99603.41;;;11.30;100.00
35291;BME280;21411;50.024;19.220;2022-10-19T04:58:47;99606.32;;;11.26;100.00
35291;BME280;21411;50.024;19.220;2022-10-19T05:01:19;99606.63;;;11.21;100.00
35291;BME280;21411;50.024;19.220;2022-10-19T05:03:46;99608.25;;;11.14;100.00
35291;BME280;21411;50.024;19.220;2022-10-19T05:06:14;99612.14;;;11.09;100.00
35291;BME280;21411;50.024;19.220;2022-10-19T05:08:41;99610.05;;;11.02;100.00
35291;BME280;21411;50.024;19.220;2022-10-19T05:11:12;99610.99;;;10.95;100.00
35291;BME280;21411;50.024;19.220;2022-10-19T05:13:40;99609.25;;;10.88;100.00
35291;BME280;21411;50.024;19.220;2022-10-19T05:16:10;99611.38;;;10.83;100.00
35291;BME280;21411;50.024;19.220;2022-10-19T05:18:37;99616.23;;;10.78;100.00
35291;BME280;21411;50.024;19.220;2022-10-19T05:21:09;99617.91;;;10.73;100.00
35291;BME280;21411;50.024;19.220;2022-10-19T05:23:36;99618.71;;;10.69;100.00
35291;BME280;21411;50.024;19.220;2022-10-19T05:26:07;99616.17;;;10.64;100.00
35291;BME280;21411;50.024;19.220;2022-10-19T05:28:35;99616.73;;;10.60;100.00
35291;BME280;21411;50.024;19.220;2022-10-19T05:31:10;99615.83;;;10.57;100.00
35291;BME280;21411;50.024;19.220;2022-10-19T05:33:38;99614.57;;;10.54;100.00
35291;BME280;21411;50.024;19.220;2022-10-19T05:38:38;99615.89;;;10.50;100.00
35291;BME280;21411;50.024;19.220;2022-10-19T05:41:05;99615.80;;;10.48;100.00
35291;BME280;21411;50.024;19.220;2022-10-19T05:43:32;99619.52;;;10.48;100.00
35291;BME280;21411;50.024;19.220;2022-10-19T05:46:03;99619.30;;;10.49;100.00
35291;BME280;21411;50.024;19.220;2022-10-19T05:48:30;99620.69;;;10.50;100.00
35291;BME280;21411;50.024;19.220;2022-10-19T05:51:02;99622.19;;;10.52;100.00
35291;BME280;21411;50.024;19.220;2022-10-19T05:53:31;99622.83;;;10.53;100.00
35291;BME280;21411;50.024;19.220;2022-10-19T05:55:57;99621.70;;;10.54;100.00
35291;BME280;21411;50.024;19.220;2022-10-19T05:58:24;99616.79;;;10.56;100.00
35291;BME280;21411;50.024;19.220;2022-10-19T06:00:55;99616.77;;;10.59;100.00
35291;BME280;21411;50.024;19.220;2022-10-19T06:03:23;99619.25;;;10.63;100.00
35291;BME280;21411;50.024;19.220;2022-10-19T06:05:50;99626.66;;;10.67;100.00
35291;BME280;21411;50.024;19.220;2022-10-19T06:08:18;99628.73;;;10.71;100.00
35291;BME280;21411;50.024;19.220;2022-10-19T06:10:46;99629.33;;;10.76;100.00
35291;BME280;21411;50.024;19.220;2022-10-19T06:13:13;99633.84;;;10.81;100.00
35291;BME280;21411;50.024;19.220;2022-10-19T06:15:41;99635.55;;;10.89;100.00
35291;BME280;21411;50.024;19.220;2022-10-19T06:18:09;99633.71;;;10.99;100.00
35291;BME280;21411;50.024;19.220;2022-10-19T06:20:39;99633.77;;;11.13;100.00
35291;BME280;21411;50.024;19.220;2022-10-19T06:23:07;99631.25;;;11.31;100.00
35291;BME280;21411;50.024;19.220;2022-10-19T06:25:34;99634.09;;;11.49;100.00
35291;BME280;21411;50.024;19.220;2022-10-19T06:28:02;99634.04;;;11.59;100.00
35291;BME280;21411;50.024;19.220;2022-10-19T06:30:29;99628.05;;;11.63;100.00
35291;BME280;21411;50.024;19.220;2022-10-19T06:32:57;99631.17;;;11.74;100.00
35291;BME280;21411;50.024;19.220;2022-10-19T06:35:24;99635.29;;;11.85;100.00
35291;BME280;21411;50.024;19.220;2022-10-19T06:37:50;99630.49;;;11.97;100.00
35291;BME280;21411;50.024;19.220;2022-10-19T06:40:17;99625.83;;;12.06;100.00
35291;BME280;21411;50.024;19.220;2022-10-19T06:42:44;99628.66;;;12.15;100.00
35291;BME280;21411;50.024;19.220;2022-10-19T06:45:10;99631.53;;;12.23;100.00
35291;BME280;21411;50.024;19.220;2022-10-19T06:47:37;99637.14;;;12.27;100.00
35291;BME280;21411;50.024;19.220;2022-10-19T06:50:04;99645.01;;;12.29;100.00
35291;BME280;21411;50.024;19.220;2022-10-19T06:52:33;99650.44;;;12.28;100.00
35291;BME280;21411;50.024;19.220;2022-10-19T06:55:00;99656.56;;;12.21;100.00
35291;BME280;21411;50.024;19.220;2022-10-19T06:57:27;99660.88;;;12.18;100.00
35291;BME280;21411;50.024;19.220;2022-10-19T06:59:54;99662.85;;;12.18;100.00
35291;BME280;21411;50.024;19.220;2022-10-19T07:02:20;99663.48;;;12.19;100.00
35291;BME280;21411;50.024;19.220;2022-10-19T07:04:47;99662.55;;;12.17;100.00
35291;BME280;21411;50.024;19.220;2022-10-19T07:07:14;99664.05;;;12.13;100.00
35291;BME280;21411;50.024;19.220;2022-10-19T07:09:40;99664.39;;;12.13;100.00
35291;BME280;21411;50.024;19.220;2022-10-19T07:12:06;99669.66;;;12.08;100.00
35291;BME280;21411;50.024;19.220;2022-10-19T07:14:36;99676.31;;;12.02;100.00
35291;BME280;21411;50.024;19.220;2022-10-19T07:17:06;99676.91;;;11.95;100.00
35291;BME280;21411;50.024;19.220;2022-10-19T07:19:33;99685.30;;;11.94;100.00
35291;BME280;21411;50.024;19.220;2022-10-19T07:22:00;99687.73;;;12.01;100.00
35291;BME280;21411;50.024;19.220;2022-10-19T07:24:26;99688.52;;;12.15;100.00
35291;BME280;21411;50.024;19.220;2022-10-19T07:26:53;99692.60;;;12.29;100.00
35291;BME280;21411;50.024;19.220;2022-10-19T07:29:20;99692.95;;;12.43;100.00
35291;BME280;21411;50.024;19.220;2022-10-19T07:31:47;99694.04;;;12.51;100.00
35291;BME280;21411;50.024;19.220;2022-10-19T07:34:14;99693.04;;;12.50;100.00
35291;BME280;21411;50.024;19.220;2022-10-19T07:36:44;99694.13;;;12.47;100.00
35291;BME280;21411;50.024;19.220;2022-10-19T07:39:11;99689.78;;;12.45;100.00
35291;BME280;21411;50.024;19.220;2022-10-19T07:41:38;99690.25;;;12.38;100.00
35291;BME280;21411;50.024;19.220;2022-10-19T07:44:05;99690.98;;;12.35;100.00
35291;BME280;21411;50.024;19.220;2022-10-19T07:46:32;99687.89;;;12.36;100.00
35291;BME280;21411;50.024;19.220;2022-10-19T07:48:59;99687.45;;;12.37;100.00
35291;BME280;21411;50.024;19.220;2022-10-19T07:51:26;99687.70;;;12.42;100.00
35291;BME280;21411;50.024;19.220;2022-10-19T07:53:52;99685.40;;;12.53;100.00
35291;BME280;21411;50.024;19.220;2022-10-19T07:56:21;99682.76;;;12.69;100.00
35291;BME280;21411;50.024;19.220;2022-10-19T07:58:49;99679.31;;;12.83;100.00
35291;BME280;21411;50.024;19.220;2022-10-19T08:01:18;99676.77;;;12.92;100.00
35291;BME280;21411;50.024;19.220;2022-10-19T08:03:46;99678.66;;;12.96;100.00
35291;BME280;21411;50.024;19.220;2022-10-19T08:06:15;99683.50;;;13.01;100.00
35291;BME280;21411;50.024;19.220;2022-10-19T08:08:43;99685.14;;;13.06;100.00
35291;BME280;21411;50.024;19.220;2022-10-19T08:11:12;99682.08;;;13.17;100.00
35291;BME280;21411;50.024;19.220;2022-10-19T08:13:39;99681.42;;;13.38;100.00
35291;BME280;21411;50.024;19.220;2022-10-19T08:16:20;99683.15;;;13.55;100.00
35291;BME280;21411;50.024;19.220;2022-10-19T08:18:47;99683.08;;;13.66;100.00
35291;BME280;21411;50.024;19.220;2022-10-19T08:21:15;99684.52;;;13.69;100.00
35291;BME280;21411;50.024;19.220;2022-10-19T08:23:41;99678.30;;;13.73;100.00
35291;BME280;21411;50.024;19.220;2022-10-19T08:26:08;99675.45;;;13.73;100.00
35291;BME280;21411;50.024;19.220;2022-10-19T08:28:35;99674.22;;;13.71;100.00
35291;BME280;21411;50.024;19.220;2022-10-19T08:31:11;99674.21;;;13.66;100.00
35291;BME280;21411;50.024;19.220;2022-10-19T08:33:38;99674.02;;;13.53;100.00
35291;BME280;21411;50.024;19.220;2022-10-19T08:36:06;99672.36;;;13.38;100.00
35291;BME280;21411;50.024;19.220;2022-10-19T08:38:34;99677.66;;;13.22;100.00
35291;BME280;21411;50.024;19.220;2022-10-19T08:44:04;99683.58;;;12.81;100.00
35291;BME280;21411;50.024;19.220;2022-10-19T08:49:18;99683.55;;;12.40;100.00
35291;BME280;21411;50.024;19.220;2022-10-19T08:51:50;99694.00;;;12.26;100.00
35291;BME280;21411;50.024;19.220;2022-10-19T08:54:19;99699.47;;;12.22;100.00
35291;BME280;21411;50.024;19.220;2022-10-19T08:59:37;99698.80;;;12.30;100.00
35291;BME280;21411;50.024;19.220;2022-10-19T09:04:59;99695.51;;;12.42;100.00
35291;BME280;21411;50.024;19.220;2022-10-19T09:07:32;99697.70;;;12.55;100.00
35291;BME280;21411;50.024;19.220;2022-10-19T09:15:26;99688.89;;;13.11;100.00
35291;BME280;21411;50.024;19.220;2022-10-19T09:17:53;99689.73;;;13.23;100.00
35291;BME280;21411;50.024;19.220;2022-10-19T09:20:23;99692.35;;;13.29;100.00
35291;BME280;21411;50.024;19.220;2022-10-19T09:23:33;99694.98;;;13.36;100.00
35291;BME280;21411;50.024;19.220;2022-10-19T09:26:05;99695.56;;;13.51;100.00
35291;BME280;21411;50.024;19.220;2022-10-19T09:28:51;99693.33;;;13.78;100.00
35291;BME280;21411;50.024;19.220;2022-10-19T09:31:31;99693.70;;;14.01;100.00
35291;BME280;21411;50.024;19.220;2022-10-19T09:34:13;99693.93;;;14.06;100.00
35291;BME280;21411;50.024;19.220;2022-10-19T09:36:45;99693.73;;;13.91;100.00
35291;BME280;21411;50.024;19.220;2022-10-19T09:39:15;99693.02;;;13.70;100.00
35291;BME280;21411;50.024;19.220;2022-10-19T09:42:23;99691.14;;;13.53;100.00
35291;BME280;21411;50.024;19.220;2022-10-19T09:44:51;99691.77;;;13.30;100.00
35291;BME280;21411;50.024;19.220;2022-10-19T09:47:35;99697.98;;;13.11;100.00
35291;BME280;21411;50.024;19.220;2022-10-19T09:52:41;99709.35;;;12.85;100.00
35291;BME280;21411;50.024;19.220;2022-10-19T09:58:15;99712.93;;;12.95;100.00
35291;BME280;21411;50.024;19.220;2022-10-19T10:00:44;99711.70;;;13.12;100.00
35291;BME280;21411;50.024;19.220;2022-10-19T10:03:35;99708.14;;;13.28;100.00
35291;BME280;21411;50.024;19.220;2022-10-19T10:06:11;99707.46;;;13.44;100.00
35291;BME280;21411;50.024;19.220;2022-10-19T10:08:45;99712.52;;;13.54;100.00
35291;BME280;21411;50.024;19.220;2022-10-19T10:11:15;99708.96;;;13.53;100.00
35291;BME280;21411;50.024;19.220;2022-10-19T10:13:49;99715.98;;;13.50;100.00
35291;BME280;21411;50.024;19.220;2022-10-19T10:16:20;99715.42;;;13.42;100.00
35291;BME280;21411;50.024;19.220;2022-10-19T10:18:52;99714.57;;;13.36;100.00
35291;BME280;21411;50.024;19.220;2022-10-19T10:21:28;99712.02;;;13.40;100.00
35291;BME280;21411;50.024;19.220;2022-10-19T10:24:04;99701.85;;;13.50;100.00
35291;BME280;21411;50.024;19.220;2022-10-19T10:26:40;99702.00;;;13.53;100.00
35291;BME280;21411;50.024;19.220;2022-10-19T10:29:21;99706.17;;;13.50;100.00
35291;BME280;21411;50.024;19.220;2022-10-19T10:32:17;99709.56;;;13.45;100.00
35291;BME280;21411;50.024;19.220;2022-10-19T10:35:00;99710.33;;;13.36;100.00
35291;BME280;21411;50.024;19.220;2022-10-19T10:37:41;99710.05;;;13.24;100.00
35291;BME280;21411;50.024;19.220;2022-10-19T10:40:25;99712.13;;;13.16;100.00
35291;BME280;21411;50.024;19.220;2022-10-19T10:42:53;99711.70;;;13.06;100.00
35291;BME280;21411;50.024;19.220;2022-10-19T10:45:26;99714.02;;;13.01;100.00
35291;BME280;21411;50.024;19.220;2022-10-19T10:47:55;99711.77;;;12.97;100.00
35291;BME280;21411;50.024;19.220;2022-10-19T10:50:25;99715.55;;;13.00;100.00
35291;BME280;21411;50.024;19.220;2022-10-19T10:53:04;99711.86;;;13.04;100.00
35291;BME280;21411;50.024;19.220;2022-10-19T10:55:32;99705.98;;;13.09;100.00
35291;BME280;21411;50.024;19.220;2022-10-19T10:58:14;99700.22;;;13.13;100.00
35291;BME280;21411;50.024;19.220;2022-10-19T11:00:44;99702.58;;;13.17;100.00
35291;BME280;21411;50.024;19.220;2022-10-19T11:03:24;99701.75;;;13.22;100.00
35291;BME280;21411;50.024;19.220;2022-10-19T11:05:57;99703.25;;;13.24;100.00
35291;BME280;21411;50.024;19.220;2022-10-19T11:08:26;99708.09;;;13.21;100.00
35291;BME280;21411;50.024;19.220;2022-10-19T11:10:59;99709.02;;;13.17;100.00
35291;BME280;21411;50.024;19.220;2022-10-19T11:13:35;99708.02;;;13.16;100.00
35291;BME280;21411;50.024;19.220;2022-10-19T11:16:16;99710.05;;;13.15;100.00
35291;BME280;21411;50.024;19.220;2022-10-19T11:26:47;99693.69;;;13.25;100.00
35291;BME280;21411;50.024;19.220;2022-10-19T11:32:33;99693.55;;;13.33;100.00
35291;BME280;21411;50.024;19.220;2022-10-19T11:35:23;99691.12;;;13.43;100.00
35291;BME280;21411;50.024;19.220;2022-10-19T11:38:14;99685.85;;;13.54;100.00
35291;BME280;21411;50.024;19.220;2022-10-19T11:44:05;99688.13;;;13.58;100.00
35291;BME280;21411;50.024;19.220;2022-10-19T11:57:50;99687.00;;;13.43;100.00
35291;BME280;21411;50.024;19.220;2022-10-19T12:00:19;99687.45;;;13.31;100.00
35291;BME280;21411;50.024;19.220;2022-10-19T12:03:02;99690.17;;;13.19;100.00
35291;BME280;21411;50.024;19.220;2022-10-19T12:05:45;99689.83;;;13.08;100.00
35291;BME280;21411;50.024;19.220;2022-10-19T12:08:29;99683.05;;;13.02;100.00
35291;BME280;21411;50.024;19.220;2022-10-19T12:11:23;99683.35;;;13.04;100.00
35291;BME280;21411;50.024;19.220;2022-10-19T12:13:59;99674.70;;;13.00;100.00
35291;BME280;21411;50.024;19.220;2022-10-19T12:16:35;99667.44;;;12.99;100.00
35291;BME280;21411;50.024;19.220;2022-10-19T12:19:04;99662.87;;;13.03;100.00
35291;BME280;21411;50.024;19.220;2022-10-19T12:21:37;99661.78;;;13.11;100.00
35291;BME280;21411;50.024;19.220;2022-10-19T12:24:11;99662.79;;;13.17;100.00
35291;BME280;21411;50.024;19.220;2022-10-19T12:26:40;99653.00;;;13.23;100.00
35291;BME280;21411;50.024;19.220;2022-10-19T12:29:21;99650.45;;;13.29;100.00
35291;BME280;21411;50.024;19.220;2022-10-19T12:31:48;99647.31;;;13.33;100.00
35291;BME280;21411;50.024;19.220;2022-10-19T12:39:54;99651.75;;;13.25;100.00
35291;BME280;21411;50.024;19.220;2022-10-19T12:42:40;99655.14;;;13.17;100.00
35291;BME280;21411;50.024;19.220;2022-10-19T12:45:23;99650.92;;;13.11;100.00
35291;BME280;21411;50.024;19.220;2022-10-19T12:56:03;99653.52;;;13.09;100.00
35291;BME280;21411;50.024;19.220;2022-10-19T13:01:21;99644.80;;;13.22;100.00
35291;BME280;21411;50.024;19.220;2022-10-19T13:03:53;99648.55;;;13.28;100.00
35291;BME280;21411;50.024;19.220;2022-10-19T13:06:34;99655.69;;;13.33;100.00
35291;BME280;21411;50.024;19.220;2022-10-19T13:09:03;99657.25;;;13.31;100.00
35291;BME280;21411;50.024;19.220;2022-10-19T13:11:30;99659.22;;;13.23;100.00
35291;BME280;21411;50.024;19.220;2022-10-19T13:13:58;99667.69;;;13.13;100.00
35291;BME280;21411;50.024;19.220;2022-10-19T13:21:45;99671.25;;;12.84;100.00
35291;BME280;21411;50.024;19.220;2022-10-19T13:24:25;99672.55;;;12.72;100.00
35291;BME280;21411;50.024;19.220;2022-10-19T13:34:54;99674.50;;;12.53;100.00
35291;BME280;21411;50.024;19.220;2022-10-19T13:37:38;99672.73;;;12.50;100.00
35291;BME280;21411;50.024;19.220;2022-10-19T13:40:16;99675.16;;;12.45;100.00
35291;BME280;21411;50.024;19.220;2022-10-19T13:42:44;99676.91;;;12.41;100.00
35291;BME280;21411;50.024;19.220;2022-10-19T13:45:22;99676.62;;;12.37;100.00
35291;BME280;21411;50.024;19.220;2022-10-19T13:47:53;99676.84;;;12.36;100.00
35291;BME280;21411;50.024;19.220;2022-10-19T13:50:33;99678.30;;;12.36;100.00
35291;BME280;21411;50.024;19.220;2022-10-19T13:53:14;99675.60;;;12.33;100.00
35291;BME280;21411;50.024;19.220;2022-10-19T13:56:26;99674.19;;;12.30;100.00
35291;BME280;21411;50.024;19.220;2022-10-19T13:59:17;99672.39;;;12.30;100.00
35291;BME280;21411;50.024;19.220;2022-10-19T14:07:28;99668.80;;;12.30;100.00
35291;BME280;21411;50.024;19.220;2022-10-19T14:10:07;99668.13;;;12.30;100.00
35291;BME280;21411;50.024;19.220;2022-10-19T14:12:40;99662.77;;;12.27;100.00
35291;BME280;21411;50.024;19.220;2022-10-19T14:15:32;99662.72;;;12.25;100.00
35291;BME280;21411;50.024;19.220;2022-10-19T14:17:59;99659.50;;;12.23;100.00
35291;BME280;21411;50.024;19.220;2022-10-19T14:20:37;99656.42;;;12.21;100.00
35291;BME280;21411;50.024;19.220;2022-10-19T14:23:17;99655.23;;;12.17;100.00
35291;BME280;21411;50.024;19.220;2022-10-19T14:25:54;99654.52;;;12.14;100.00
35291;BME280;21411;50.024;19.220;2022-10-19T14:28:23;99659.33;;;12.12;100.00
35291;BME280;21411;50.024;19.220;2022-10-19T14:31:01;99660.71;;;12.12;100.00
35291;BME280;21411;50.024;19.220;2022-10-19T14:33:31;99662.91;;;12.11;100.00
35291;BME280;21411;50.024;19.220;2022-10-19T14:35:58;99664.11;;;12.06;100.00
35291;BME280;21411;50.024;19.220;2022-10-19T14:40:57;99670.52;;;11.97;100.00
35291;BME280;21411;50.024;19.220;2022-10-19T14:43:26;99665.38;;;11.94;100.00
35291;BME280;21411;50.024;19.220;2022-10-19T14:48:39;99663.17;;;11.90;100.00
35291;BME280;21411;50.024;19.220;2022-10-19T14:53:43;99660.44;;;11.84;100.00
35291;BME280;21411;50.024;19.220;2022-10-19T14:56:14;99659.95;;;11.80;100.00
35291;BME280;21411;50.024;19.220;2022-10-19T14:58:48;99661.23;;;11.77;100.00
35291;BME280;21411;50.024;19.220;2022-10-19T15:01:17;99657.40;;;11.73;100.00